createdAt,value
2022-12-18T00:00:15.484Z,98673.42
2022-12-18T00:03:03.634Z,98677.78
2022-12-18T00:05:32.760Z,98673.97
2022-12-18T00:08:00.937Z,98673.15
2022-12-18T00:10:30.347Z,98676.62
2022-12-18T00:12:58.455Z,98682.92
2022-12-18T00:15:26.667Z,98683.89
2022-12-18T00:17:54.740Z,98690.75
2022-12-18T00:20:26.699Z,98699.23
2022-12-18T00:22:55.239Z,98706.98
2022-12-18T00:25:24.000Z,98703.86
2022-12-18T00:27:52.395Z,98705.70
2022-12-18T00:30:20.713Z,98708.08
2022-12-18T00:32:48.770Z,98709.76
2022-12-18T00:35:16.972Z,98705.77
2022-12-18T00:37:45.067Z,98706.98
2022-12-18T00:40:13.679Z,98711.84
2022-12-18T00:42:57.017Z,98710.31
2022-12-18T00:45:31.371Z,98716.29
2022-12-18T00:47:59.542Z,98719.38
2022-12-18T00:50:28.175Z,98725.00
2022-12-18T00:52:56.331Z,98725.10
2022-12-18T00:55:24.442Z,98728.45
2022-12-18T00:57:53.661Z,98727.66
2022-12-18T01:00:22.217Z,98726.31
2022-12-18T01:02:50.549Z,98729.96
2022-12-18T01:05:19.572Z,98730.06
2022-12-18T01:07:47.749Z,98730.86
2022-12-18T01:10:15.987Z,98731.13
2022-12-18T01:12:44.314Z,98732.61
2022-12-18T01:15:15.519Z,98736.67
2022-12-18T01:17:44.124Z,98736.67
2022-12-18T01:20:14.359Z,98736.61
2022-12-18T01:22:42.536Z,98732.94
2022-12-18T01:25:10.883Z,98727.89
2022-12-18T01:27:38.990Z,98726.00
2022-12-18T01:30:08.349Z,98727.94
2022-12-18T01:32:36.737Z,98729.45
2022-12-18T01:35:06.486Z,98733.70
2022-12-18T01:37:34.756Z,98736.38
2022-12-18T01:40:03.017Z,98733.89
2022-12-18T01:42:31.163Z,98736.17
2022-12-18T01:45:12.384Z,98732.85
2022-12-18T01:47:56.040Z,98735.45
2022-12-18T01:50:31.074Z,98739.61
2022-12-18T01:53:01.330Z,98744.57
2022-12-18T01:55:33.657Z,98745.58
2022-12-18T01:58:02.537Z,98745.20
2022-12-18T02:00:31.091Z,98745.91
2022-12-18T02:02:59.329Z,98744.14
2022-12-18T02:06:01.981Z,98746.68
2022-12-18T02:08:41.630Z,98755.86
2022-12-18T02:11:37.990Z,98761.95
2022-12-18T02:14:22.264Z,98754.15
2022-12-18T02:17:13.517Z,98758.15
2022-12-18T02:19:53.467Z,98767.92
2022-12-18T02:22:59.830Z,98774.80
2022-12-18T02:26:02.831Z,98776.64
2022-12-18T02:28:41.154Z,98781.40
2022-12-18T02:31:16.143Z,98785.44
2022-12-18T02:33:46.874Z,98791.58
2022-12-18T02:36:17.665Z,98798.58
2022-12-18T02:38:47.809Z,98799.74
2022-12-18T02:41:19.071Z,98800.35
2022-12-18T02:43:56.412Z,98801.64
2022-12-18T02:46:34.025Z,98801.55
2022-12-18T02:49:22.551Z,98807.16
2022-12-18T02:52:26.592Z,98814.34
2022-12-18T02:55:18.039Z,98817.31
2022-12-18T02:57:54.805Z,98825.92
2022-12-18T03:00:39.217Z,98832.20
2022-12-18T03:03:24.486Z,98838.83
2022-12-18T03:06:05.498Z,98844.96
2022-12-18T03:08:40.643Z,98853.23
2022-12-18T03:11:14.928Z,98857.29
2022-12-18T03:13:57.217Z,98856.40
2022-12-18T03:16:31.264Z,98862.17
2022-12-18T03:19:05.400Z,98871.48
2022-12-18T03:21:51.034Z,98876.52
2022-12-18T03:24:21.378Z,98875.71
2022-12-18T03:26:55.420Z,98879.48
2022-12-18T03:29:31.026Z,98882.77
2022-12-18T03:32:13.045Z,98887.98
2022-12-18T03:34:44.991Z,98895.89
2022-12-18T03:37:14.142Z,98898.59
2022-12-18T03:39:42.710Z,98901.27
2022-12-18T03:42:28.794Z,98906.64
2022-12-18T03:45:23.290Z,98909.64
2022-12-18T03:48:01.570Z,98918.80
2022-12-18T03:51:15.635Z,98922.84
2022-12-18T03:54:05.020Z,98925.84
2022-12-18T03:56:43.142Z,98931.27
2022-12-18T03:59:13.881Z,98940.11
2022-12-18T04:01:48.600Z,98941.36
2022-12-18T04:04:19.961Z,98941.38
2022-12-18T04:06:50.658Z,98939.23
2022-12-18T04:09:21.695Z,98944.65
2022-12-18T04:11:50.145Z,98945.48
2022-12-18T04:14:18.686Z,98949.51
2022-12-18T04:16:49.986Z,98956.19
2022-12-18T04:19:19.463Z,98956.28
2022-12-18T04:21:49.030Z,98960.41
2022-12-18T04:24:17.152Z,98968.28
2022-12-18T04:26:52.913Z,98970.23
2022-12-18T04:29:27.194Z,98976.02
2022-12-18T04:31:55.523Z,98976.27
2022-12-18T04:34:25.327Z,98978.63
2022-12-18T04:36:54.412Z,98978.43
2022-12-18T04:39:23.292Z,98979.90
2022-12-18T04:41:52.637Z,98983.28
2022-12-18T04:44:20.896Z,98988.05
2022-12-18T04:46:49.054Z,98990.84
2022-12-18T04:49:17.317Z,98988.20
2022-12-18T04:51:45.523Z,98988.77
2022-12-18T04:54:13.561Z,98988.64
2022-12-18T04:56:41.736Z,98992.05
2022-12-18T04:59:09.840Z,98997.30
2022-12-18T05:01:38.182Z,99002.23
2022-12-18T05:04:07.086Z,99005.17
2022-12-18T05:06:35.240Z,99010.99
2022-12-18T05:09:05.468Z,99014.44
2022-12-18T05:11:34.910Z,99012.23
2022-12-18T05:14:03.273Z,99013.23
2022-12-18T05:16:31.481Z,99012.98
2022-12-18T05:18:59.716Z,99022.54
2022-12-18T05:21:27.816Z,99032.11
2022-12-18T05:23:55.977Z,99035.52
2022-12-18T05:26:24.281Z,99038.71
2022-12-18T05:28:52.396Z,99044.95
2022-12-18T05:31:20.619Z,99044.73
2022-12-18T05:33:49.996Z,99051.73
2022-12-18T05:36:18.198Z,99054.05
2022-12-18T05:38:46.470Z,99056.04
2022-12-18T05:41:14.633Z,99056.94
2022-12-18T05:43:44.048Z,99063.05
2022-12-18T05:46:18.950Z,99065.08
2022-12-18T05:48:47.587Z,99069.34
2022-12-18T05:51:19.327Z,99080.61
2022-12-18T05:53:48.439Z,99085.42
2022-12-18T05:56:21.106Z,99087.77
2022-12-18T05:58:53.852Z,99086.81
2022-12-18T06:01:27.505Z,99086.59
2022-12-18T06:03:56.623Z,99089.38
2022-12-18T06:06:28.007Z,99093.34
2022-12-18T06:08:57.692Z,99098.55
2022-12-18T06:11:27.732Z,99103.44
2022-12-18T06:13:58.915Z,99112.23
2022-12-18T06:16:29.414Z,99118.98
2022-12-18T06:19:02.626Z,99121.77
2022-12-18T06:21:31.970Z,99126.73
2022-12-18T06:24:01.167Z,99131.85
2022-12-18T06:26:29.325Z,99137.76
2022-12-18T06:28:57.951Z,99143.10
2022-12-18T06:31:26.954Z,99141.76
2022-12-18T06:33:55.105Z,99144.17
2022-12-18T06:36:23.312Z,99148.30
2022-12-18T06:38:51.385Z,99156.89
2022-12-18T06:41:22.270Z,99164.30
2022-12-18T06:43:52.195Z,99173.13
2022-12-18T06:46:22.766Z,99175.35
2022-12-18T06:48:51.624Z,99183.27
2022-12-18T06:51:24.714Z,99187.64
2022-12-18T06:53:52.947Z,99193.09
2022-12-18T06:56:21.289Z,99195.27
2022-12-18T06:58:52.547Z,99194.28
2022-12-18T07:01:20.926Z,99194.36
2022-12-18T07:03:55.486Z,99197.08
2022-12-18T07:06:26.591Z,99200.95
2022-12-18T07:08:56.193Z,99203.52
2022-12-18T07:11:25.364Z,99217.63
2022-12-18T07:13:54.316Z,99220.14
2022-12-18T07:16:25.652Z,99223.84
2022-12-18T07:18:56.360Z,99225.64
2022-12-18T07:21:25.819Z,99231.54
2022-12-18T07:23:53.959Z,99232.96
2022-12-18T07:26:23.646Z,99237.88
2022-12-18T07:28:55.715Z,99236.27
2022-12-18T07:31:25.532Z,99239.59
2022-12-18T07:33:53.879Z,99240.79
2022-12-18T07:36:25.572Z,99245.85
2022-12-18T07:38:54.059Z,99247.32
2022-12-18T07:41:22.187Z,99251.27
2022-12-18T07:43:50.667Z,99257.16
2022-12-18T07:46:19.181Z,99259.25
2022-12-18T07:48:49.733Z,99264.98
2022-12-18T07:51:20.811Z,99264.92
2022-12-18T07:53:52.571Z,99264.50
2022-12-18T07:56:27.668Z,99268.00
2022-12-18T07:58:58.753Z,99273.36
2022-12-18T08:01:28.172Z,99277.19
2022-12-18T08:03:56.634Z,99278.33
2022-12-18T08:06:25.158Z,99282.08
2022-12-18T08:08:55.587Z,99287.23
2022-12-18T08:11:27.689Z,99289.69
2022-12-18T08:13:56.815Z,99300.39
2022-12-18T08:16:25.336Z,99299.40
2022-12-18T08:18:54.848Z,99304.11
2022-12-18T08:21:32.677Z,99309.02
2022-12-18T08:24:02.793Z,99314.52
2022-12-18T08:26:32.646Z,99314.66
2022-12-18T08:29:01.793Z,99319.13
2022-12-18T08:31:32.057Z,99317.71
2022-12-18T08:34:00.290Z,99321.20
2022-12-18T08:36:28.740Z,99319.95
2022-12-18T08:38:58.349Z,99315.72
2022-12-18T08:41:27.502Z,99316.59
2022-12-18T08:44:15.260Z,99320.42
2022-12-18T08:46:45.030Z,99320.01
2022-12-18T08:49:15.706Z,99318.70
2022-12-18T08:51:43.776Z,99319.40
2022-12-18T08:54:14.642Z,99317.73
2022-12-18T08:56:43.135Z,99319.05
2022-12-18T08:59:17.292Z,99325.95
2022-12-18T09:01:47.977Z,99326.17
2022-12-18T09:04:16.743Z,99329.79
2022-12-18T09:06:45.029Z,99323.23
2022-12-18T09:09:13.671Z,99326.11
2022-12-18T09:11:41.998Z,99330.15
2022-12-18T09:14:10.997Z,99332.46
2022-12-18T09:16:39.416Z,99328.09
2022-12-18T09:19:08.148Z,99326.99
2022-12-18T09:21:43.383Z,99325.84
2022-12-18T09:24:15.796Z,99323.60
2022-12-18T09:26:47.225Z,99329.11
2022-12-18T09:29:19.014Z,99323.57
2022-12-18T09:31:47.685Z,99330.71
2022-12-18T09:34:17.749Z,99334.61
2022-12-18T09:36:45.953Z,99338.06
2022-12-18T09:39:17.344Z,99341.33
2022-12-18T09:41:59.023Z,99338.75
2022-12-18T09:44:32.663Z,99339.63
2022-12-18T09:47:05.067Z,99339.57
2022-12-18T09:49:40.481Z,99343.10
2022-12-18T09:52:35.520Z,99347.34
2022-12-18T09:55:19.532Z,99347.05
2022-12-18T09:57:54.458Z,99342.09
2022-12-18T10:00:26.155Z,99341.31
2022-12-18T10:03:10.450Z,99345.73
2022-12-18T10:05:45.637Z,99346.23
2022-12-18T10:08:35.236Z,99348.69
2022-12-18T10:11:41.048Z,99347.48
2022-12-18T10:14:34.246Z,99349.05
2022-12-18T10:17:26.696Z,99351.17
2022-12-18T10:20:36.234Z,99352.81
2022-12-18T10:23:16.747Z,99355.05
2022-12-18T10:26:06.064Z,99352.09
2022-12-18T10:28:42.778Z,99352.31
2022-12-18T10:31:24.561Z,99350.42
2022-12-18T10:33:57.100Z,99354.11
2022-12-18T10:36:26.497Z,99355.23
2022-12-18T10:38:54.673Z,99357.23
2022-12-18T10:41:27.422Z,99357.66
2022-12-18T10:44:19.211Z,99358.99
2022-12-18T10:46:51.414Z,99357.42
2022-12-18T10:49:39.219Z,99359.81
2022-12-18T10:52:21.535Z,99362.83
2022-12-18T10:55:03.804Z,99366.74
2022-12-18T10:57:42.728Z,99365.98
2022-12-18T11:00:34.019Z,99360.44
2022-12-18T11:03:40.131Z,99363.98
2022-12-18T11:06:23.207Z,99360.59
2022-12-18T11:09:19.971Z,99360.77
2022-12-18T11:11:54.571Z,99365.05
2022-12-18T11:14:47.326Z,99365.90
2022-12-18T11:17:37.007Z,99365.88
2022-12-18T11:20:33.085Z,99371.99
2022-12-18T11:23:15.152Z,99367.19
2022-12-18T11:26:05.740Z,99365.23
2022-12-18T11:29:11.305Z,99366.83
2022-12-18T11:31:41.156Z,99367.96
2022-12-18T11:34:34.307Z,99367.48
2022-12-18T11:37:04.697Z,99369.09
2022-12-18T11:39:46.395Z,99370.05
2022-12-18T11:42:36.886Z,99373.11
2022-12-18T11:45:14.500Z,99374.41
2022-12-18T11:48:02.630Z,99372.67
2022-12-18T11:50:58.113Z,99372.36
2022-12-18T11:53:54.175Z,99373.92
2022-12-18T11:56:50.512Z,99377.38
2022-12-18T11:59:44.688Z,99377.20
2022-12-18T12:02:51.033Z,99377.52
2022-12-18T12:06:10.228Z,99380.66
2022-12-18T12:09:06.366Z,99385.45
2022-12-18T12:11:58.744Z,99390.45
2022-12-18T12:15:09.047Z,99389.64
2022-12-18T12:18:28.200Z,99389.48
2022-12-18T12:21:41.730Z,99391.19
2022-12-18T12:24:53.057Z,99385.45
2022-12-18T12:27:38.025Z,99382.53
2022-12-18T12:30:36.507Z,99388.89
2022-12-18T12:33:32.637Z,99393.05
2022-12-18T12:36:27.647Z,99392.07
2022-12-18T12:39:02.269Z,99390.52
2022-12-18T12:41:53.750Z,99397.33
2022-12-18T12:44:29.433Z,99400.41
2022-12-18T12:47:12.250Z,99402.60
2022-12-18T12:49:41.671Z,99400.89
2022-12-18T12:52:38.304Z,99404.88
2022-12-18T12:55:26.762Z,99411.27
2022-12-18T12:58:10.082Z,99418.33
2022-12-18T13:00:55.181Z,99425.02
2022-12-18T13:03:41.449Z,99424.17
2022-12-18T13:06:49.254Z,99424.98
2022-12-18T13:09:18.160Z,99428.11
2022-12-18T13:12:06.775Z,99429.06
2022-12-18T13:14:41.727Z,99432.36
2022-12-18T13:17:22.157Z,99435.65
2022-12-18T13:20:09.910Z,99436.75
2022-12-18T13:22:51.233Z,99442.39
2022-12-18T13:25:39.076Z,99453.01
2022-12-18T13:28:17.386Z,99455.42
2022-12-18T13:30:50.865Z,99451.23
2022-12-18T13:33:28.736Z,99451.94
2022-12-18T13:36:09.900Z,99455.75
2022-12-18T13:38:39.782Z,99454.67
2022-12-18T13:41:29.524Z,99457.76
2022-12-18T13:44:13.638Z,99454.98
2022-12-18T13:46:47.689Z,99455.48
2022-12-18T13:49:15.757Z,99454.09
2022-12-18T13:51:54.621Z,99454.63
2022-12-18T13:54:42.621Z,99454.48
2022-12-18T13:57:34.153Z,99454.02
2022-12-18T14:00:32.523Z,99454.41
2022-12-18T14:03:02.168Z,99451.48
2022-12-18T14:05:36.176Z,99447.31
2022-12-18T14:08:14.009Z,99446.47
2022-12-18T14:10:49.330Z,99449.96
2022-12-18T14:13:43.283Z,99456.21
2022-12-18T14:16:16.264Z,99458.23
2022-12-18T14:18:47.349Z,99460.19
2022-12-18T14:21:39.527Z,99461.20
2022-12-18T14:24:22.754Z,99464.55
2022-12-18T14:26:52.309Z,99464.46
2022-12-18T14:29:25.577Z,99464.05
2022-12-18T14:32:20.184Z,99468.66
2022-12-18T14:34:55.093Z,99473.13
2022-12-18T14:37:26.633Z,99477.27
2022-12-18T14:40:00.588Z,99479.84
2022-12-18T14:42:30.159Z,99488.87
2022-12-18T14:45:41.823Z,99493.14
2022-12-18T14:48:25.214Z,99497.52
2022-12-18T14:51:15.581Z,99504.90
2022-12-18T14:53:54.077Z,99507.88
2022-12-18T14:56:32.613Z,99512.90
2022-12-18T14:59:07.742Z,99520.34
2022-12-18T15:01:49.032Z,99521.62
2022-12-18T15:04:43.014Z,99528.90
2022-12-18T15:07:14.998Z,99530.18
2022-12-18T15:10:16.217Z,99529.80
2022-12-18T15:12:48.077Z,99534.56
2022-12-18T15:15:34.746Z,99540.12
2022-12-18T15:18:13.180Z,99546.92
2022-12-18T15:20:50.898Z,99550.30
2022-12-18T15:23:53.786Z,99549.38
2022-12-18T15:26:23.585Z,99549.45
2022-12-18T15:28:56.974Z,99556.20
2022-12-18T15:31:31.758Z,99565.90
2022-12-18T15:34:09.082Z,99570.27
2022-12-18T15:36:37.613Z,99571.63
2022-12-18T15:39:06.677Z,99575.40
2022-12-18T15:41:37.521Z,99580.67
2022-12-18T15:44:26.572Z,99582.11
2022-12-18T15:46:58.082Z,99582.14
2022-12-18T15:49:26.421Z,99585.07
2022-12-18T15:52:00.944Z,99587.66
2022-12-18T15:54:47.711Z,99587.06
2022-12-18T15:57:24.921Z,99583.85
2022-12-18T15:59:57.550Z,99583.79
2022-12-18T16:02:26.848Z,99591.16
2022-12-18T16:04:55.304Z,99589.15
2022-12-18T16:07:25.522Z,99590.42
2022-12-18T16:09:55.833Z,99588.23
2022-12-18T16:12:26.782Z,99594.98
2022-12-18T16:14:55.164Z,99600.21
2022-12-18T16:17:23.205Z,99596.27
2022-12-18T16:19:51.476Z,99606.36
2022-12-18T16:22:26.133Z,99608.02
2022-12-18T16:24:56.773Z,99611.09
2022-12-18T16:27:26.172Z,99608.77
2022-12-18T16:29:54.345Z,99608.79
2022-12-18T16:32:23.720Z,99611.13
2022-12-18T16:34:53.153Z,99609.21
2022-12-18T16:37:21.295Z,99606.58
2022-12-18T16:39:49.380Z,99610.45
2022-12-18T16:42:21.244Z,99611.15
2022-12-18T16:44:50.516Z,99610.77
2022-12-18T16:47:20.267Z,99609.27
2022-12-18T16:49:51.766Z,99608.98
2022-12-18T16:52:20.710Z,99618.92
2022-12-18T16:54:49.192Z,99621.16
2022-12-18T16:57:21.153Z,99629.15
2022-12-18T16:59:53.328Z,99631.73
2022-12-18T17:02:25.111Z,99629.98
2022-12-18T17:04:56.899Z,99630.58
2022-12-18T17:07:26.995Z,99635.05
2022-12-18T17:09:55.764Z,99641.02
2022-12-18T17:12:24.963Z,99643.84
2022-12-18T17:14:53.060Z,99650.73
2022-12-18T17:17:22.557Z,99656.70
2022-12-18T17:19:52.511Z,99658.29
2022-12-18T17:22:23.605Z,99659.95
2022-12-18T17:24:52.165Z,99660.27
2022-12-18T17:27:20.442Z,99665.05
2022-12-18T17:29:49.163Z,99663.80
2022-12-18T17:32:18.352Z,99661.86
2022-12-18T17:34:46.766Z,99662.31
2022-12-18T17:37:15.554Z,99666.58
2022-12-18T17:39:43.780Z,99666.98
2022-12-18T17:42:15.569Z,99673.91
2022-12-18T17:44:44.929Z,99673.67
2022-12-18T17:47:14.677Z,99672.64
2022-12-18T17:49:42.756Z,99674.34
2022-12-18T17:52:11.195Z,99677.45
2022-12-18T17:54:42.297Z,99679.70
2022-12-18T17:57:10.728Z,99677.90
2022-12-18T17:59:39.022Z,99682.15
2022-12-18T18:02:10.022Z,99678.23
2022-12-18T18:04:38.520Z,99678.71
2022-12-18T18:07:06.796Z,99679.41
2022-12-18T18:09:35.068Z,99683.48
2022-12-18T18:12:21.982Z,99685.15
2022-12-18T18:14:50.982Z,99685.21
2022-12-18T18:17:19.865Z,99690.42
2022-12-18T18:19:48.030Z,99692.09
2022-12-18T18:22:19.287Z,99693.02
2022-12-18T18:24:48.547Z,99692.35
2022-12-18T18:27:17.258Z,99697.90
2022-12-18T18:29:45.651Z,99701.23
2022-12-18T18:32:13.787Z,99705.05
2022-12-18T18:34:42.204Z,99708.05
2022-12-18T18:37:12.120Z,99706.54
2022-12-18T18:39:40.401Z,99700.80
2022-12-18T18:42:09.184Z,99701.60
2022-12-18T18:44:37.269Z,99708.06
2022-12-18T18:47:08.598Z,99714.40
2022-12-18T18:49:38.007Z,99710.88
2022-12-18T18:52:07.412Z,99708.36
2022-12-18T18:54:35.706Z,99701.98
2022-12-18T18:57:20.291Z,99699.95
2022-12-18T18:59:49.170Z,99705.69
2022-12-18T19:02:18.132Z,99706.81
2022-12-18T19:04:47.151Z,99711.11
2022-12-18T19:07:26.165Z,99708.71
2022-12-18T19:10:03.508Z,99708.25
2022-12-18T19:12:53.433Z,99714.06
2022-12-18T19:15:23.451Z,99713.98
2022-12-18T19:17:51.820Z,99717.39
2022-12-18T19:20:20.233Z,99723.37
2022-12-18T19:22:55.464Z,99725.46
2022-12-18T19:25:33.860Z,99725.55
2022-12-18T19:28:15.801Z,99729.05
2022-12-18T19:31:01.771Z,99729.63
2022-12-18T19:33:42.736Z,99727.10
2022-12-18T19:36:20.825Z,99729.89
2022-12-18T19:38:51.298Z,99733.21
2022-12-18T19:41:21.210Z,99726.77
2022-12-18T19:43:51.190Z,99730.70
2022-12-18T19:46:22.989Z,99733.88
2022-12-18T19:48:51.828Z,99729.89
2022-12-18T19:51:26.483Z,99737.94
2022-12-18T19:53:58.820Z,99740.48
2022-12-18T19:56:34.787Z,99740.90
2022-12-18T19:59:05.242Z,99743.55
2022-12-18T20:01:33.902Z,99741.09
2022-12-18T20:04:02.668Z,99738.56
2022-12-18T20:06:53.496Z,99738.63
2022-12-18T20:09:22.040Z,99732.63
2022-12-18T20:11:50.894Z,99724.98
2022-12-18T20:14:23.224Z,99726.66
2022-12-18T20:16:53.027Z,99730.23
2022-12-18T20:19:22.551Z,99734.48
2022-12-18T20:21:51.139Z,99735.33
2022-12-18T20:24:19.314Z,99737.77
2022-12-18T20:26:47.589Z,99740.06
2022-12-18T20:29:15.970Z,99743.94
2022-12-18T20:31:44.269Z,99745.13
2022-12-18T20:34:12.623Z,99748.30
2022-12-18T20:36:41.187Z,99753.48
2022-12-18T20:39:13.310Z,99755.94
2022-12-18T20:41:41.959Z,99757.02
2022-12-18T20:44:23.112Z,99754.59
2022-12-18T20:47:00.340Z,99753.63
2022-12-18T20:49:35.361Z,99753.58
2022-12-18T20:52:04.011Z,99750.41
2022-12-18T20:54:32.219Z,99754.10
2022-12-18T20:57:00.496Z,99756.56
2022-12-18T20:59:28.775Z,99761.48
2022-12-18T21:01:57.097Z,99761.05
2022-12-18T21:04:26.250Z,99760.08
2022-12-18T21:06:58.027Z,99759.24
2022-12-18T21:09:36.945Z,99757.03
2022-12-18T21:12:33.468Z,99757.46
2022-12-18T21:15:10.060Z,99760.09
2022-12-18T21:17:44.139Z,99759.10
2022-12-18T21:20:17.299Z,99763.68
2022-12-18T21:22:47.233Z,99762.93
2022-12-18T21:25:15.637Z,99768.93
2022-12-18T21:27:43.813Z,99770.83
2022-12-18T21:30:14.515Z,99773.26
2022-12-18T21:32:42.621Z,99779.79
2022-12-18T21:35:10.794Z,99787.40
2022-12-18T21:37:38.907Z,99790.52
2022-12-18T21:40:08.545Z,99791.69
2022-12-18T21:42:55.477Z,99794.83
2022-12-18T21:45:23.663Z,99799.42
2022-12-18T21:47:51.838Z,99804.84
2022-12-18T21:50:19.975Z,99803.81
2022-12-18T21:52:47.994Z,99803.97
2022-12-18T21:55:16.154Z,99802.10
2022-12-18T21:57:44.212Z,99803.08
2022-12-18T22:00:19.199Z,99806.90
2022-12-18T22:03:16.937Z,99809.88
2022-12-18T22:05:38.449Z,99805.26
2022-12-18T22:08:07.645Z,99806.05
2022-12-18T22:10:37.390Z,99802.14
2022-12-18T22:13:07.469Z,99795.42
2022-12-18T22:15:35.704Z,99792.65
2022-12-18T22:18:04.129Z,99791.80
2022-12-18T22:20:32.518Z,99794.55
2022-12-18T22:23:02.884Z,99795.55
2022-12-18T22:25:36.010Z,99800.29
2022-12-18T22:28:26.931Z,99801.81
2022-12-18T22:30:59.584Z,99800.45
2022-12-18T22:33:28.670Z,99801.42
2022-12-18T22:35:57.092Z,99808.27
2022-12-18T22:38:26.384Z,99808.90
2022-12-18T22:40:55.173Z,99803.41
2022-12-18T22:43:23.600Z,99804.73
2022-12-18T22:45:51.735Z,99804.45
2022-12-18T22:48:20.105Z,99800.91
2022-12-18T22:50:48.279Z,99793.88
2022-12-18T22:53:18.099Z,99792.72
2022-12-18T22:55:46.368Z,99795.98
2022-12-18T22:58:14.545Z,99796.98
2022-12-18T23:00:42.717Z,99799.89
2022-12-18T23:03:11.097Z,99801.29
2022-12-18T23:05:39.789Z,99804.91
2022-12-18T23:08:07.962Z,99806.58
2022-12-18T23:10:39.643Z,99803.00
2022-12-18T23:13:08.525Z,99802.73
2022-12-18T23:15:42.880Z,99798.39
2022-12-18T23:18:11.815Z,99792.30
2022-12-18T23:20:40.061Z,99791.70
2022-12-18T23:23:08.406Z,99796.45
2022-12-18T23:25:36.874Z,99797.42
2022-12-18T23:28:06.077Z,99800.03
2022-12-18T23:30:34.351Z,99813.90
2022-12-18T23:33:02.702Z,99820.73
2022-12-18T23:35:31.286Z,99820.45
2022-12-18T23:38:00.160Z,99815.59
2022-12-18T23:40:30.088Z,99812.90
2022-12-18T23:43:00.209Z,99815.96
2022-12-18T23:45:28.404Z,99817.44
2022-12-18T23:47:56.762Z,99816.58
2022-12-18T23:50:29.392Z,99820.06
2022-12-18T23:53:00.812Z,99816.25
2022-12-18T23:55:40.472Z,99820.66
2022-12-18T23:58:18.234Z,99829.40
